Time;durP1;ratioP1;P1;durP2;ratioP2;P2;SDS_P1;SDS_P2;PMS_P1;PMS_P2;Temp;Humidity;BMP_temperature;BMP_pressure;BME280_temperature;BME280_humidity;BME280_pressure;Samples;Min_cycle;Max_cycle;Signal;HPM_P1;HPM_P2
2023/01/25 00:01:36;;;;;;;;;;;-3.00;99.90;;;;;;5057178;28;19971;-76
2023/01/25 00:04:02;;;;;;;;;;;-3.00;99.90;;;;;;5058772;28;19996;-76
2023/01/25 00:06:27;;;;;;;;;;;-3.00;99.90;;;;;;5056166;28;20284;-76
2023/01/25 00:08:53;;;;;;;;;;;-3.00;99.90;;;;;;5057232;28;19913;-76
2023/01/25 00:11:19;;;;;;;;;;;-3.00;99.90;;;;;;5057421;28;20368;-76
2023/01/25 00:13:45;;;;;;;;;;;-3.00;99.90;;;;;;5057217;28;19916;-75
2023/01/25 00:16:10;;;;;;;;;;;-3.00;99.90;;;;;;5057040;28;19916;-75
2023/01/25 00:18:36;;;;;;;;;;;-3.00;99.90;;;;;;5056673;28;19909;-75
2023/01/25 00:21:21;;;;;;;;;;;-3.10;99.90;;;;;;5056334;28;19912;-76
2023/01/25 00:23:46;;;;;;;;;;;-3.10;99.90;;;;;;5058108;28;19909;-76
2023/01/25 00:26:12;;;;;;;;;;;-3.00;99.90;;;;;;5058174;28;19920;-76
2023/01/25 00:28:38;;;;;;;;;;;-3.10;99.90;;;;;;5038530;28;20368;-74
2023/01/25 00:40:12;;;;;;;;;;;-3.00;99.90;;;;;;5036399;28;20000;-76
2023/01/25 00:48:44;;;;;;;;;;;-2.90;99.90;;;;;;5057132;28;20438;-76
2023/01/25 00:51:10;;;;;;;;;;;-2.80;99.90;;;;;;5056418;28;19913;-76
2023/01/25 00:53:36;;;;;;;;;;;-2.80;99.90;;;;;;5057090;28;19947;-76
2023/01/25 00:56:02;;;;;;;;;;;-2.80;99.90;;;;;;5056368;28;19909;-76
2023/01/25 00:58:27;;;;;;;;;;;-2.90;99.90;;;;;;5055676;28;19919;-76
2023/01/25 01:00:54;;;;;;;;;;;-2.90;99.90;;;;;;5055775;28;19913;-76
2023/01/25 01:03:19;;;;;;;;;;;-2.90;99.90;;;;;;5057579;28;20279;-76
2023/01/25 01:05:45;;;;;;;;;;;-3.00;99.90;;;;;;5057112;28;19956;-76
2023/01/25 01:08:11;;;;;;;;;;;-3.00;99.90;;;;;;5057323;28;19913;-76
2023/01/25 01:10:37;;;;;;;;;;;-3.00;99.90;;;;;;5055408;28;19982;-76
2023/01/25 01:13:02;;;;;;;;;;;-2.90;99.90;;;;;;5055821;28;20436;-76
2023/01/25 01:15:28;;;;;;;;;;;-2.90;99.90;;;;;;5056976;28;20269;-76
2023/01/25 01:17:54;;;;;;;;;;;-2.90;99.90;;;;;;5056657;28;19919;-76
2023/01/25 01:20:19;;;;;;;;;;;-2.90;99.90;;;;;;5056979;28;19913;-76
2023/01/25 01:22:45;;;;;;;;;;;-2.90;99.90;;;;;;5057029;28;19912;-76
2023/01/25 01:25:12;;;;;;;;;;;-2.90;99.90;;;;;;5056978;28;19916;-76
2023/01/25 01:27:37;;;;;;;;;;;-2.80;99.90;;;;;;5057679;28;20365;-76
2023/01/25 01:30:03;;;;;;;;;;;-2.80;99.90;;;;;;5055774;28;19921;-76
2023/01/25 01:32:29;;;;;;;;;;;-2.80;99.90;;;;;;5056819;28;19940;-76
2023/01/25 01:34:54;;;;;;;;;;;-2.80;99.90;;;;;;5057081;28;19924;-76
2023/01/25 01:37:20;;;;;;;;;;;-2.80;99.90;;;;;;5057687;28;19913;-76
2023/01/25 01:39:46;;;;;;;;;;;-2.80;99.90;;;;;;5056919;28;19920;-76
2023/01/25 01:42:11;;;;;;;;;;;-2.70;99.90;;;;;;5056230;28;19920;-76
2023/01/25 01:44:44;;;;;;;;;;;-2.70;99.90;;;;;;5056875;28;19972;-76
2023/01/25 01:47:15;;;;;;;;;;;-2.70;99.90;;;;;;5056165;28;19909;-76
2023/01/25 01:49:43;;;;;;;;;;;-2.70;99.90;;;;;;5055435;28;19909;-76
2023/01/25 01:52:18;;;;;;;;;;;-2.70;99.90;;;;;;5057119;28;19913;-76
2023/01/25 01:54:44;;;;;;;;;;;-2.70;99.90;;;;;;5056570;28;20408;-76
2023/01/25 01:57:13;;;;;;;;;;;-2.70;99.90;;;;;;5057123;28;19948;-76
2023/01/25 01:59:49;;;;;;;;;;;-2.70;99.90;;;;;;5056564;28;19913;-76
2023/01/25 02:02:15;;;;;;;;;;;-2.70;99.90;;;;;;5056645;28;19955;-76
2023/01/25 02:04:44;;;;;;;;;;;-2.70;99.90;;;;;;5040261;28;19910;-76
2023/01/25 02:07:18;;;;;;;;;;;-2.70;99.90;;;;;;5056974;28;20046;-76
2023/01/25 02:09:44;;;;;;;;;;;-2.70;99.90;;;;;;5058355;28;19916;-76
2023/01/25 02:12:10;;;;;;;;;;;-2.70;99.90;;;;;;5059935;28;20284;-76
2023/01/25 02:14:38;;;;;;;;;;;-2.70;99.90;;;;;;5059229;28;19913;-74
2023/01/25 02:17:03;;;;;;;;;;;-2.70;99.90;;;;;;5058271;28;19913;-76
2023/01/25 02:19:37;;;;;;;;;;;-2.70;99.90;;;;;;5063471;28;19959;-76
2023/01/25 02:22:06;;;;;;;;;;;-2.70;99.90;;;;;;5071647;28;19917;-76
2023/01/25 02:24:33;;;;;;;;;;;-2.70;99.90;;;;;;5074737;28;19913;-76
2023/01/25 02:26:58;;;;;;;;;;;-2.70;99.90;;;;;;5058128;28;20423;-76
2023/01/25 02:29:25;;;;;;;;;;;-2.70;99.90;;;;;;5057765;28;19921;-76
2023/01/25 02:31:57;;;;;;;;;;;-2.70;99.90;;;;;;5058671;28;20353;-76
2023/01/25 02:34:23;;;;;;;;;;;-2.70;99.90;;;;;;5057843;28;19913;-76
2023/01/25 02:36:48;;;;;;;;;;;-2.70;99.90;;;;;;5058208;28;19913;-76
2023/01/25 02:39:17;;;;;;;;;;;-2.60;99.90;;;;;;5060788;28;19923;-76
2023/01/25 02:41:43;;;;;;;;;;;-2.60;99.90;;;;;;5059539;28;19909;-76
2023/01/25 02:44:11;;;;;;;;;;;-2.60;99.90;;;;;;5060503;28;19982;-76
2023/01/25 02:46:37;;;;;;;;;;;-2.60;99.90;;;;;;5059834;28;19909;-76
2023/01/25 02:49:04;;;;;;;;;;;-2.60;99.90;;;;;;5058224;28;20338;-76
2023/01/25 02:51:31;;;;;;;;;;;-2.60;99.90;;;;;;5059013;28;19971;-76
2023/01/25 02:53:56;;;;;;;;;;;-2.50;99.90;;;;;;5058296;28;19912;-76
2023/01/25 02:56:22;;;;;;;;;;;-2.50;99.90;;;;;;5057073;28;19932;-76
2023/01/25 02:58:48;;;;;;;;;;;-2.60;99.90;;;;;;5059001;28;20356;-76
2023/01/25 03:01:13;;;;;;;;;;;-2.60;99.90;;;;;;5058530;28;19970;-76
2023/01/25 03:03:39;;;;;;;;;;;-2.60;99.90;;;;;;5058468;28;19920;-76
2023/01/25 03:06:06;;;;;;;;;;;-2.50;99.90;;;;;;5058362;28;19958;-76
2023/01/25 03:08:32;;;;;;;;;;;-2.60;99.90;;;;;;5057266;28;20364;-76
2023/01/25 03:10:58;;;;;;;;;;;-2.60;99.90;;;;;;5057024;28;19920;-76
2023/01/25 03:13:24;;;;;;;;;;;-2.60;99.90;;;;;;5056098;28;20369;-76
2023/01/25 03:15:49;;;;;;;;;;;-2.60;99.90;;;;;;5056648;28;19913;-76
2023/01/25 03:18:15;;;;;;;;;;;-2.60;99.90;;;;;;5055896;28;19908;-76
2023/01/25 03:20:40;;;;;;;;;;;-2.60;99.90;;;;;;5056972;28;20399;-77
2023/01/25 03:23:06;;;;;;;;;;;-2.60;99.90;;;;;;5058151;28;19920;-77
2023/01/25 03:25:32;;;;;;;;;;;-2.60;99.90;;;;;;5057820;28;20332;-75
2023/01/25 03:27:57;;;;;;;;;;;-2.70;99.90;;;;;;5058422;28;20011;-76
2023/01/25 03:30:23;;;;;;;;;;;-2.70;99.90;;;;;;5056062;28;19908;-75
2023/01/25 03:32:49;;;;;;;;;;;-2.70;99.90;;;;;;5057924;28;19913;-76
2023/01/25 03:35:15;;;;;;;;;;;-2.70;99.90;;;;;;5056705;28;19913;-75
2023/01/25 03:37:40;;;;;;;;;;;-2.80;99.90;;;;;;5057795;28;20360;-75
2023/01/25 03:40:06;;;;;;;;;;;-2.80;99.90;;;;;;5059162;28;19916;-75
2023/01/25 03:42:32;;;;;;;;;;;-2.80;99.90;;;;;;5058718;28;19913;-75
2023/01/25 03:44:57;;;;;;;;;;;-2.80;99.90;;;;;;5051232;28;19917;-76
2023/01/25 03:47:23;;;;;;;;;;;-2.80;99.90;;;;;;5040140;28;19920;-76
2023/01/25 03:49:48;;;;;;;;;;;-2.80;99.90;;;;;;5054679;28;19967;-76
2023/01/25 03:52:14;;;;;;;;;;;-2.80;99.90;;;;;;5037772;28;19913;-76
2023/01/25 03:54:39;;;;;;;;;;;-2.80;99.90;;;;;;5054258;28;19971;-76
2023/01/25 03:57:06;;;;;;;;;;;-2.80;99.90;;;;;;5038324;28;19913;-75
2023/01/25 03:59:31;;;;;;;;;;;-2.80;99.90;;;;;;5036736;28;19910;-75
2023/01/25 04:01:57;;;;;;;;;;;-2.80;99.90;;;;;;5036488;28;19920;-75
2023/01/25 04:04:22;;;;;;;;;;;-2.80;99.90;;;;;;5036653;28;19913;-76
2023/01/25 04:06:48;;;;;;;;;;;-2.80;99.90;;;;;;5051932;28;19972;-75
2023/01/25 04:09:13;;;;;;;;;;;-2.80;99.90;;;;;;5036521;28;19913;-75
2023/01/25 04:11:39;;;;;;;;;;;-2.80;99.90;;;;;;5036596;28;19913;-75
2023/01/25 04:14:05;;;;;;;;;;;-2.90;99.90;;;;;;5037323;28;19913;-75
2023/01/25 04:16:30;;;;;;;;;;;-2.80;99.90;;;;;;5055614;28;20392;-76
2023/01/25 04:18:56;;;;;;;;;;;-2.80;99.90;;;;;;5057412;28;19913;-75
2023/01/25 04:21:22;;;;;;;;;;;-2.80;99.90;;;;;;5056013;28;20440;-75
2023/01/25 04:23:47;;;;;;;;;;;-2.80;99.90;;;;;;5057215;28;19917;-75
2023/01/25 04:26:13;;;;;;;;;;;-2.80;99.90;;;;;;5057096;28;19920;-75
2023/01/25 04:28:38;;;;;;;;;;;-2.70;99.90;;;;;;5057454;28;19923;-75
2023/01/25 04:31:05;;;;;;;;;;;-2.70;99.90;;;;;;5057266;28;19912;-76
2023/01/25 04:33:30;;;;;;;;;;;-2.70;99.90;;;;;;5057110;28;19936;-75
2023/01/25 04:35:56;;;;;;;;;;;-2.70;99.90;;;;;;5057203;28;19913;-75
2023/01/25 04:38:22;;;;;;;;;;;-2.70;99.90;;;;;;5055659;28;20287;-75
2023/01/25 04:40:47;;;;;;;;;;;-2.70;99.90;;;;;;5058199;28;20069;-76
2023/01/25 04:43:13;;;;;;;;;;;-2.70;99.90;;;;;;5055976;28;19913;-76
2023/01/25 04:45:39;;;;;;;;;;;-2.70;99.90;;;;;;5056919;28;20276;-75
2023/01/25 04:48:08;;;;;;;;;;;-2.70;99.90;;;;;;5055826;28;19935;-76
2023/01/25 04:50:37;;;;;;;;;;;-2.70;99.90;;;;;;5056315;28;19916;-75
2023/01/25 04:53:03;;;;;;;;;;;-2.80;99.90;;;;;;5056806;28;19917;-75
2023/01/25 04:55:29;;;;;;;;;;;-2.80;99.90;;;;;;5055826;28;19921;-75
2023/01/25 04:57:55;;;;;;;;;;;-2.90;99.90;;;;;;5056757;28;20014;-75
2023/01/25 05:00:20;;;;;;;;;;;-2.90;99.90;;;;;;5056130;28;19913;-75
2023/01/25 05:02:46;;;;;;;;;;;-2.90;99.90;;;;;;5056921;28;19913;-75
2023/01/25 05:05:12;;;;;;;;;;;-2.90;99.90;;;;;;5055889;28;19913;-75
2023/01/25 05:07:37;;;;;;;;;;;-3.00;99.90;;;;;;5057842;28;19920;-75
2023/01/25 05:10:03;;;;;;;;;;;-3.00;99.90;;;;;;5057423;28;19939;-75
2023/01/25 05:12:29;;;;;;;;;;;-3.00;99.90;;;;;;5055805;28;20345;-75
2023/01/25 05:14:56;;;;;;;;;;;-3.00;99.90;;;;;;5050417;28;20474;-76
2023/01/25 05:17:22;;;;;;;;;;;-3.00;99.90;;;;;;5018367;28;19920;-76
2023/01/25 05:19:47;;;;;;;;;;;-3.00;99.90;;;;;;5035193;28;19913;-76
2023/01/25 05:22:14;;;;;;;;;;;-3.00;99.90;;;;;;5035641;28;20488;-76
2023/01/25 05:24:44;;;;;;;;;;;-3.00;99.90;;;;;;5036093;28;19932;-75
2023/01/25 05:27:10;;;;;;;;;;;-3.00;99.90;;;;;;5052006;28;19988;-76
2023/01/25 05:29:36;;;;;;;;;;;-3.10;99.90;;;;;;5034779;28;19921;-76
2023/01/25 05:32:04;;;;;;;;;;;-3.00;99.90;;;;;;5035249;28;19909;-76
2023/01/25 05:34:29;;;;;;;;;;;-3.00;99.90;;;;;;5054268;28;19913;-75
2023/01/25 05:36:55;;;;;;;;;;;-3.10;99.90;;;;;;5051037;28;19913;-75
2023/01/25 05:39:21;;;;;;;;;;;-3.10;99.90;;;;;;5033768;28;19917;-75
2023/01/25 05:41:46;;;;;;;;;;;-3.10;99.90;;;;;;5038216;28;19919;-75
2023/01/25 05:44:12;;;;;;;;;;;-3.10;99.90;;;;;;5040253;28;20365;-75
2023/01/25 05:46:37;;;;;;;;;;;-3.10;99.90;;;;;;5058739;28;20380;-75
2023/01/25 05:49:03;;;;;;;;;;;-3.10;99.90;;;;;;5059970;28;19917;-75
2023/01/25 05:51:28;;;;;;;;;;;-3.10;99.90;;;;;;5060176;28;19909;-75
2023/01/25 05:53:55;;;;;;;;;;;-3.10;99.90;;;;;;5059965;28;20381;-75
2023/01/25 05:56:21;;;;;;;;;;;-3.10;99.90;;;;;;5060087;28;19912;-75
2023/01/25 05:58:46;;;;;;;;;;;-3.10;99.90;;;;;;5060100;28;20004;-75
2023/01/25 06:01:12;;;;;;;;;;;-3.00;99.90;;;;;;5059957;28;19948;-75
2023/01/25 06:03:37;;;;;;;;;;;-3.00;99.90;;;;;;5060103;28;19949;-75
2023/01/25 06:06:03;;;;;;;;;;;-3.00;99.90;;;;;;5059908;28;19913;-75
2023/01/25 06:08:29;;;;;;;;;;;-3.00;99.90;;;;;;5059853;28;19913;-75
2023/01/25 06:10:55;;;;;;;;;;;-3.00;99.90;;;;;;5059569;28;20258;-75
2023/01/25 06:13:23;;;;;;;;;;;-3.00;99.90;;;;;;5059954;28;19909;-75
2023/01/25 06:15:52;;;;;;;;;;;-3.00;99.90;;;;;;5059495;28;19919;-75
2023/01/25 06:18:18;;;;;;;;;;;-3.00;99.90;;;;;;5059877;28;20353;-75
2023/01/25 06:20:43;;;;;;;;;;;-2.90;99.90;;;;;;5060314;28;19909;-75
2023/01/25 06:23:09;;;;;;;;;;;-2.90;99.90;;;;;;5060016;28;20340;-75
2023/01/25 06:25:34;;;;;;;;;;;-2.90;99.90;;;;;;5059808;28;20329;-76
2023/01/25 06:28:00;;;;;;;;;;;-2.90;99.90;;;;;;5059617;28;19962;-76
2023/01/25 06:30:25;;;;;;;;;;;-2.90;99.90;;;;;;5059583;28;19912;-76
2023/01/25 06:32:51;;;;;;;;;;;-2.90;99.90;;;;;;5059879;28;19979;-75
2023/01/25 06:35:17;;;;;;;;;;;-2.90;99.90;;;;;;5059749;28;20012;-75
2023/01/25 06:37:42;;;;;;;;;;;-2.90;99.90;;;;;;5060090;28;19913;-76
2023/01/25 06:40:08;;;;;;;;;;;-2.90;99.90;;;;;;5059254;28;19920;-75
2023/01/25 06:42:33;;;;;;;;;;;-2.90;99.90;;;;;;5060378;28;19915;-75
2023/01/25 06:44:59;;;;;;;;;;;-2.80;99.90;;;;;;5059961;28;20258;-76
2023/01/25 06:47:24;;;;;;;;;;;-2.80;99.90;;;;;;5059580;28;19920;-75
2023/01/25 06:49:50;;;;;;;;;;;-2.80;99.90;;;;;;5059676;28;19913;-75
2023/01/25 06:52:15;;;;;;;;;;;-2.80;99.90;;;;;;5057977;28;20401;-75
2023/01/25 06:54:41;;;;;;;;;;;-2.80;99.90;;;;;;5055304;28;20380;-76
2023/01/25 06:57:09;;;;;;;;;;;-2.80;99.90;;;;;;5057097;28;19913;-76
2023/01/25 06:59:37;;;;;;;;;;;-2.70;99.90;;;;;;5056471;28;19913;-75
2023/01/25 07:02:03;;;;;;;;;;;-2.60;99.90;;;;;;5056231;28;19994;-76
2023/01/25 07:04:28;;;;;;;;;;;-2.60;99.90;;;;;;5056413;28;20035;-75
2023/01/25 07:06:54;;;;;;;;;;;-2.50;99.90;;;;;;5056240;28;19919;-75
2023/01/25 07:09:23;;;;;;;;;;;-2.50;99.90;;;;;;5055897;28;19920;-76
2023/01/25 07:11:52;;;;;;;;;;;-2.50;99.90;;;;;;5056226;28;19913;-75
2023/01/25 07:14:17;;;;;;;;;;;-2.50;99.90;;;;;;5056761;28;19978;-75
2023/01/25 07:16:43;;;;;;;;;;;-2.40;99.90;;;;;;5055815;28;20327;-75
2023/01/25 07:19:09;;;;;;;;;;;-2.40;99.90;;;;;;5056064;28;19935;-75
2023/01/25 07:21:35;;;;;;;;;;;-2.40;99.90;;;;;;5056567;28;19909;-75
2023/01/25 07:24:02;;;;;;;;;;;-2.40;99.90;;;;;;5056041;28;20265;-75
2023/01/25 07:26:28;;;;;;;;;;;-2.30;99.90;;;;;;5055183;28;19913;-76
2023/01/25 07:28:55;;;;;;;;;;;-2.30;99.90;;;;;;5056089;28;19967;-75
2023/01/25 07:31:21;;;;;;;;;;;-2.30;99.90;;;;;;5055611;28;19958;-76
2023/01/25 07:33:54;;;;;;;;;;;-2.30;99.90;;;;;;5056146;28;20370;-76
2023/01/25 07:36:20;;;;;;;;;;;-2.30;99.90;;;;;;5056060;28;20353;-76
2023/01/25 07:38:46;;;;;;;;;;;-2.30;99.90;;;;;;5055276;28;19913;-75
2023/01/25 07:41:12;;;;;;;;;;;-2.20;99.90;;;;;;5055966;28;19934;-75
2023/01/25 07:43:37;;;;;;;;;;;-2.20;99.90;;;;;;5055604;28;19944;-76
2023/01/25 07:46:04;;;;;;;;;;;-2.10;99.90;;;;;;5055517;28;19909;-76
2023/01/25 07:48:31;;;;;;;;;;;-2.00;99.90;;;;;;5055724;28;20003;-76
2023/01/25 07:51:10;;;;;;;;;;;-2.00;99.90;;;;;;5055796;28;19917;-76
2023/01/25 07:53:36;;;;;;;;;;;-2.00;99.90;;;;;;5055761;28;19912;-75
2023/01/25 07:56:02;;;;;;;;;;;-1.90;99.90;;;;;;5055440;28;19940;-75
2023/01/25 07:58:28;;;;;;;;;;;-1.90;99.90;;;;;;5054016;28;20109;-76
2023/01/25 08:00:53;;;;;;;;;;;-1.90;99.90;;;;;;5055060;28;19913;-75
2023/01/25 08:03:21;;;;;;;;;;;-2.00;99.90;;;;;;5054842;28;19917;-76
2023/01/25 08:05:47;;;;;;;;;;;-2.00;99.90;;;;;;5055263;28;19913;-76
2023/01/25 08:08:13;;;;;;;;;;;-2.00;99.90;;;;;;5054970;28;20428;-75
2023/01/25 08:10:38;;;;;;;;;;;-2.00;99.90;;;;;;5055181;28;19956;-75
2023/01/25 08:13:05;;;;;;;;;;;-1.90;99.90;;;;;;5055389;28;19913;-75
2023/01/25 08:15:31;;;;;;;;;;;-1.90;99.90;;;;;;5054961;28;19934;-76
2023/01/25 08:18:00;;;;;;;;;;;-1.80;99.90;;;;;;5054795;28;20011;-75
2023/01/25 08:20:25;;;;;;;;;;;-1.80;99.90;;;;;;5055266;28;19913;-75
2023/01/25 08:22:51;;;;;;;;;;;-1.70;99.90;;;;;;5054747;28;19998;-76
2023/01/25 08:25:17;;;;;;;;;;;-1.70;99.90;;;;;;5054869;28;19993;-75
2023/01/25 08:27:43;;;;;;;;;;;-1.60;99.90;;;;;;5054891;28;20352;-76
2023/01/25 08:30:10;;;;;;;;;;;-1.60;99.90;;;;;;5055815;28;19928;-75
2023/01/25 08:32:36;;;;;;;;;;;-1.50;99.90;;;;;;5053369;28;19913;-75
2023/01/25 08:35:02;;;;;;;;;;;-1.50;99.90;;;;;;5054529;28;19916;-76
2023/01/25 08:37:28;;;;;;;;;;;-1.40;99.90;;;;;;5054824;28;19913;-75
2023/01/25 08:39:56;;;;;;;;;;;-1.40;99.90;;;;;;5054421;28;19989;-75
2023/01/25 08:42:22;;;;;;;;;;;-1.30;99.90;;;;;;5054510;28;20280;-75
2023/01/25 08:44:48;;;;;;;;;;;-1.30;99.90;;;;;;5054593;28;20362;-75
2023/01/25 08:47:13;;;;;;;;;;;-1.20;99.90;;;;;;5054556;28;19991;-75
2023/01/25 08:49:39;;;;;;;;;;;-1.20;99.90;;;;;;5054477;28;20412;-75
2023/01/25 08:52:05;;;;;;;;;;;-1.10;99.90;;;;;;5053343;28;19909;-75
2023/01/25 08:54:30;;;;;;;;;;;-1.00;99.90;;;;;;5054909;28;19953;-75
2023/01/25 08:56:56;;;;;;;;;;;-0.90;99.90;;;;;;5054744;28;19948;-75
2023/01/25 08:59:22;;;;;;;;;;;-0.70;99.90;;;;;;5053296;28;19920;-75
2023/01/25 09:01:47;;;;;;;;;;;-0.60;99.90;;;;;;5053127;28;19936;-74
2023/01/25 09:04:13;;;;;;;;;;;-0.60;99.90;;;;;;5054442;28;19956;-75
2023/01/25 09:06:38;;;;;;;;;;;-0.60;99.90;;;;;;5052936;28;19963;-75
2023/01/25 09:09:04;;;;;;;;;;;-0.50;99.90;;;;;;5054119;28;19966;-75
2023/01/25 09:11:32;;;;;;;;;;;-0.50;99.90;;;;;;5054553;28;19912;-75
2023/01/25 09:13:57;;;;;;;;;;;-0.50;99.90;;;;;;5054303;28;19999;-78
2023/01/25 09:16:29;;;;;;;;;;;-0.50;99.90;;;;;;5035810;28;20377;-75
2023/01/25 09:18:56;;;;;;;;;;;-0.50;99.90;;;;;;5034148;28;19913;-75
2023/01/25 09:21:22;;;;;;;;;;;-0.50;99.90;;;;;;5034141;28;19909;-75
2023/01/25 09:23:49;;;;;;;;;;;-0.50;99.90;;;;;;5033941;28;19920;-75
2023/01/25 09:26:14;;;;;;;;;;;-0.40;99.90;;;;;;5034237;28;19909;-75
2023/01/25 09:28:41;;;;;;;;;;;-0.30;99.90;;;;;;5033504;28;19944;-75
2023/01/25 09:31:09;;;;;;;;;;;-0.20;99.90;;;;;;5033637;28;19913;-75
2023/01/25 09:33:36;;;;;;;;;;;-0.10;99.90;;;;;;5034132;28;20016;-75
2023/01/25 09:36:02;;;;;;;;;;;-0.10;99.90;;;;;;5034326;28;20273;-75
2023/01/25 09:38:27;;;;;;;;;;;0.00;99.90;;;;;;5034745;28;19935;-75
2023/01/25 09:41:11;;;;;;;;;;;0.00;99.90;;;;;;5033858;28;19913;-75
2023/01/25 09:43:40;;;;;;;;;;;0.00;99.90;;;;;;5049302;28;19915;-75
2023/01/25 09:46:18;;;;;;;;;;;0.10;99.90;;;;;;5048207;28;19999;-75
2023/01/25 09:48:58;;;;;;;;;;;0.20;99.90;;;;;;5053573;28;19916;-75
2023/01/25 09:51:23;;;;;;;;;;;0.30;99.90;;;;;;5054019;28;19909;-75
2023/01/25 09:53:51;;;;;;;;;;;0.40;99.90;;;;;;5052626;28;19909;-75
2023/01/25 09:56:28;;;;;;;;;;;0.40;99.90;;;;;;5052766;28;20288;-75
2023/01/25 09:59:03;;;;;;;;;;;0.50;99.90;;;;;;5051124;28;19909;-75
2023/01/25 10:01:36;;;;;;;;;;;0.50;99.90;;;;;;5052097;28;19917;-75
2023/01/25 10:04:21;;;;;;;;;;;0.60;99.90;;;;;;5053872;28;20349;-75
2023/01/25 10:06:57;;;;;;;;;;;0.60;99.90;;;;;;5054045;28;19908;-75
2023/01/25 10:09:45;;;;;;;;;;;0.60;99.90;;;;;;5053777;28;19909;-75
2023/01/25 10:12:14;;;;;;;;;;;0.60;99.90;;;;;;5052552;28;19908;-75
2023/01/25 10:14:39;;;;;;;;;;;0.70;99.90;;;;;;5053649;28;19917;-74
2023/01/25 10:17:10;;;;;;;;;;;0.80;99.90;;;;;;5052198;28;19916;-74
2023/01/25 10:19:39;;;;;;;;;;;0.80;99.90;;;;;;5053759;28;20020;-74
2023/01/25 10:22:04;;;;;;;;;;;0.80;99.90;;;;;;5053386;28;19913;-75
2023/01/25 10:24:45;;;;;;;;;;;0.80;99.90;;;;;;5053693;28;19924;-75
2023/01/25 10:27:31;;;;;;;;;;;0.80;99.90;;;;;;5056026;28;19908;-75
2023/01/25 10:29:59;;;;;;;;;;;0.80;99.90;;;;;;5057320;28;20003;-75
2023/01/25 10:32:31;;;;;;;;;;;0.80;99.90;;;;;;5057577;28;20377;-75
2023/01/25 10:34:59;;;;;;;;;;;0.80;99.90;;;;;;5057998;28;19916;-75
2023/01/25 10:37:27;;;;;;;;;;;0.90;99.90;;;;;;5058099;28;20323;-75
2023/01/25 10:40:16;;;;;;;;;;;0.90;99.90;;;;;;5057689;28;20006;-75
2023/01/25 10:42:58;;;;;;;;;;;0.90;99.90;;;;;;5049430;28;19916;-75
2023/01/25 10:45:24;;;;;;;;;;;1.00;99.90;;;;;;5057627;28;19908;-75
2023/01/25 10:48:06;;;;;;;;;;;1.10;99.90;;;;;;5057335;28;19936;-74
2023/01/25 10:50:41;;;;;;;;;;;1.20;99.90;;;;;;5057742;28;19905;-75
2023/01/25 10:53:27;;;;;;;;;;;1.30;99.90;;;;;;5057814;28;19909;-75
2023/01/25 10:56:10;;;;;;;;;;;1.30;99.90;;;;;;5056749;28;19956;-75
2023/01/25 10:58:35;;;;;;;;;;;1.30;99.90;;;;;;5057236;28;19909;-75
2023/01/25 11:01:03;;;;;;;;;;;1.30;99.90;;;;;;5057043;28;19947;-73
2023/01/25 11:03:36;;;;;;;;;;;1.40;99.90;;;;;;5057183;28;19912;-73
2023/01/25 11:06:02;;;;;;;;;;;1.30;99.90;;;;;;5057238;28;19909;-73
2023/01/25 11:08:30;;;;;;;;;;;1.30;99.90;;;;;;5057298;28;20376;-73
2023/01/25 11:10:56;;;;;;;;;;;1.40;99.90;;;;;;5057188;28;19909;-73
2023/01/25 11:13:24;;;;;;;;;;;1.40;99.90;;;;;;5057227;28;19920;-72
2023/01/25 11:15:53;;;;;;;;;;;1.40;99.90;;;;;;5056923;28;19923;-73
2023/01/25 11:18:21;;;;;;;;;;;1.30;99.90;;;;;;5056760;28;19951;-73
2023/01/25 11:20:47;;;;;;;;;;;1.30;99.90;;;;;;5057120;28;20430;-73
2023/01/25 11:23:23;;;;;;;;;;;1.30;99.90;;;;;;5057087;28;19913;-73
2023/01/25 11:25:49;;;;;;;;;;;1.40;99.90;;;;;;5057592;28;20383;-73
2023/01/25 11:28:24;;;;;;;;;;;1.40;99.90;;;;;;5054700;28;19971;-73
2023/01/25 11:30:50;;;;;;;;;;;1.40;99.90;;;;;;5055709;28;19913;-73
2023/01/25 11:33:17;;;;;;;;;;;1.40;99.90;;;;;;5055269;28;19909;-73
2023/01/25 11:35:52;;;;;;;;;;;1.40;99.90;;;;;;5054967;28;19920;-73
2023/01/25 11:38:20;;;;;;;;;;;1.30;99.90;;;;;;5054427;28;19943;-74
2023/01/25 11:40:48;;;;;;;;;;;1.40;99.90;;;;;;5055426;28;19932;-74
2023/01/25 11:43:20;;;;;;;;;;;1.40;99.90;;;;;;5056033;28;19948;-74
2023/01/25 11:45:48;;;;;;;;;;;1.50;99.90;;;;;;5055837;28;20276;-74
2023/01/25 11:48:14;;;;;;;;;;;1.60;99.90;;;;;;5055249;28;19944;-74
2023/01/25 11:50:44;;;;;;;;;;;1.70;99.90;;;;;;5056336;28;19932;-73
2023/01/25 11:53:18;;;;;;;;;;;1.70;99.90;;;;;;5055838;28;20344;-73
2023/01/25 11:55:58;;;;;;;;;;;1.80;99.90;;;;;;5055774;28;20372;-74
2023/01/25 11:58:23;;;;;;;;;;;1.90;99.90;;;;;;5055369;28;19955;-73
2023/01/25 12:00:58;;;;;;;;;;;2.00;99.90;;;;;;5055181;28;19909;-74
2023/01/25 12:03:35;;;;;;;;;;;2.00;99.90;;;;;;5053833;28;20344;-74
2023/01/25 12:06:09;;;;;;;;;;;2.10;99.90;;;;;;5055568;28;19996;-74
2023/01/25 12:08:35;;;;;;;;;;;2.10;99.90;;;;;;5055168;28;20276;-74
2023/01/25 12:11:07;;;;;;;;;;;2.20;99.90;;;;;;5054820;28;19956;-73
2023/01/25 12:13:54;;;;;;;;;;;2.20;99.90;;;;;;5055520;28;19954;-73
2023/01/25 12:16:35;;;;;;;;;;;2.20;99.90;;;;;;5038474;28;19920;-75
2023/01/25 12:19:12;;;;;;;;;;;2.10;99.90;;;;;;5035195;28;19909;-74
2023/01/25 12:21:38;;;;;;;;;;;2.10;99.90;;;;;;5035072;28;19936;-74
2023/01/25 12:24:03;;;;;;;;;;;2.10;99.90;;;;;;5035092;28;19909;-73
2023/01/25 12:26:32;;;;;;;;;;;2.10;99.90;;;;;;5035110;28;19955;-74
2023/01/25 12:29:16;;;;;;;;;;;2.10;99.90;;;;;;5034768;28;19917;-74
2023/01/25 12:31:53;;;;;;;;;;;2.10;99.90;;;;;;5034886;28;19913;-74
2023/01/25 12:34:26;;;;;;;;;;;2.10;99.90;;;;;;5034886;28;20015;-73
2023/01/25 12:36:52;;;;;;;;;;;2.00;99.90;;;;;;5034902;28;19915;-73
2023/01/25 12:39:23;;;;;;;;;;;2.00;99.90;;;;;;5034659;28;19944;-73
2023/01/25 12:42:14;;;;;;;;;;;1.90;99.90;;;;;;5035140;28;20349;-73
2023/01/25 12:45:00;;;;;;;;;;;1.90;99.90;;;;;;5038268;28;19940;-73
2023/01/25 12:47:48;;;;;;;;;;;2.00;99.90;;;;;;5054233;28;19916;-73
2023/01/25 12:50:17;;;;;;;;;;;2.00;99.90;;;;;;5043207;28;19916;-73
2023/01/25 12:52:48;;;;;;;;;;;2.00;99.90;;;;;;5054745;28;20092;-73
2023/01/25 12:55:14;;;;;;;;;;;2.00;99.90;;;;;;5054837;28;19913;-74
2023/01/25 12:58:03;;;;;;;;;;;2.10;99.90;;;;;;5055016;28;19912;-73
2023/01/25 13:00:35;;;;;;;;;;;2.10;99.90;;;;;;5054671;28;19962;-73
2023/01/25 13:03:15;;;;;;;;;;;2.00;99.90;;;;;;5054128;28;20331;-73
2023/01/25 13:05:47;;;;;;;;;;;1.90;99.90;;;;;;5054519;28;20375;-75
2023/01/25 13:08:18;;;;;;;;;;;1.90;99.90;;;;;;5054156;28;19909;-75
2023/01/25 13:10:47;;;;;;;;;;;1.90;99.90;;;;;;5054127;28;19909;-75
2023/01/25 13:13:21;;;;;;;;;;;1.90;99.90;;;;;;5054410;28;19908;-73
2023/01/25 13:15:47;;;;;;;;;;;1.90;99.90;;;;;;5053910;28;19913;-73
2023/01/25 13:18:28;;;;;;;;;;;1.90;99.90;;;;;;5053831;28;20011;-75
2023/01/25 13:20:55;;;;;;;;;;;1.90;99.90;;;;;;5053913;28;19966;-75
2023/01/25 13:23:32;;;;;;;;;;;1.90;99.90;;;;;;5054169;28;20341;-73
2023/01/25 13:26:27;;;;;;;;;;;1.80;99.90;;;;;;5052616;28;20365;-73
2023/01/25 13:28:53;;;;;;;;;;;1.80;99.90;;;;;;5036165;28;19923;-75
2023/01/25 13:31:37;;;;;;;;;;;1.70;99.90;;;;;;5053859;28;19912;-75
2023/01/25 13:34:07;;;;;;;;;;;1.70;99.90;;;;;;5053643;28;19915;-75
2023/01/25 13:36:36;;;;;;;;;;;1.70;99.90;;;;;;5054044;28;19992;-73
2023/01/25 13:39:22;;;;;;;;;;;1.60;99.90;;;;;;5053899;28;20306;-73
2023/01/25 13:41:56;;;;;;;;;;;1.50;99.90;;;;;;5053614;28;20258;-75
2023/01/25 13:44:27;;;;;;;;;;;1.60;99.90;;;;;;5053665;28;20353;-75
2023/01/25 13:47:11;;;;;;;;;;;1.50;99.90;;;;;;5053408;28;20377;-75
2023/01/25 13:49:43;;;;;;;;;;;1.50;99.90;;;;;;5053606;28;19908;-74
2023/01/25 13:52:17;;;;;;;;;;;1.60;99.90;;;;;;5054162;28;19913;-74
2023/01/25 13:54:46;;;;;;;;;;;1.60;99.90;;;;;;5053757;28;19913;-72
2023/01/25 13:57:13;;;;;;;;;;;1.70;99.90;;;;;;5053869;28;19917;-73
2023/01/25 13:59:38;;;;;;;;;;;1.70;99.90;;;;;;5053631;28;20380;-73
2023/01/25 14:02:21;;;;;;;;;;;1.80;99.90;;;;;;5055327;28;19920;-73
2023/01/25 14:04:47;;;;;;;;;;;1.80;99.90;;;;;;5057885;28;19915;-73
2023/01/25 14:07:17;;;;;;;;;;;1.80;99.90;;;;;;5057571;28;19912;-73
2023/01/25 14:09:43;;;;;;;;;;;1.90;99.90;;;;;;5058076;28;19915;-73
2023/01/25 14:12:10;;;;;;;;;;;1.90;99.90;;;;;;5057366;28;19971;-73
2023/01/25 14:14:36;;;;;;;;;;;1.80;99.90;;;;;;5057211;28;19913;-75
2023/01/25 14:17:07;;;;;;;;;;;1.80;99.90;;;;;;5057258;28;19912;-75
2023/01/25 14:19:38;;;;;;;;;;;1.90;99.90;;;;;;5056812;28;19909;-74
2023/01/25 14:22:11;;;;;;;;;;;1.80;99.90;;;;;;5057817;28;19909;-72
2023/01/25 14:24:36;;;;;;;;;;;1.80;99.90;;;;;;5057314;28;19909;-73
2023/01/25 14:27:03;;;;;;;;;;;1.70;99.90;;;;;;5057947;28;20335;-73
2023/01/25 14:29:28;;;;;;;;;;;1.60;99.90;;;;;;5057113;28;19924;-75
2023/01/25 14:31:54;;;;;;;;;;;1.60;99.90;;;;;;5058074;28;19966;-73
2023/01/25 14:34:19;;;;;;;;;;;1.50;99.90;;;;;;5057394;28;20384;-72
2023/01/25 14:36:46;;;;;;;;;;;1.50;99.90;;;;;;5057554;28;20367;-72
2023/01/25 14:39:34;;;;;;;;;;;1.40;99.90;;;;;;5057370;28;19925;-72
2023/01/25 14:42:00;;;;;;;;;;;1.40;99.90;;;;;;5056998;28;19909;-74
2023/01/25 14:44:27;;;;;;;;;;;1.30;99.90;;;;;;5057759;28;19944;-73